Johnson, Nebraska
Current Conditions -  °F | °C
As of 8:15 PM on Friday 24 Oct 2014 (Local Time) from KAFK Reporting Station
Clear Clear  
Wind Chill: 66°   Ceiling: Unl
Heat Index: 66°   Visibility: 10mi
Dew Point: 55°   Wind: 6mph
Humidity: 66%   Direction: 340°NNW
Pressure: 29.96"   Gusts: NA
Location:  40.41°N, 96°W
Report Text: KAFK 250115Z AUTO 34005KT 10SM CLR 19/13 A2996 RMK AO2 T01910127
Loading
Personal Weather Stations






























Interactive Weather Map
Tropical Storm Tracking
New forecast layout! Learn more

10-Day Weather Forecast

Advertisements
Track Severe Weather on mobile